Time;durP1;ratioP1;P1;durP2;ratioP2;P2;SDS_P1;SDS_P2;PMS_P1;PMS_P2;Temp;Humidity;BMP_temperature;BMP_pressure;BME280_temperature;BME280_humidity;BME280_pressure;Samples;Min_cycle;Max_cycle;Signal;HPM_P1;HPM_P2
2022/01/10 00:01:28;;;;;;;6.07;4.30;;;0.50;99.90;;;;;;486130;242;27366;-69
2022/01/10 00:03:26;;;;;;;5.05;3.78;;;0.50;99.90;;;;;;486161;242;27405;-70
2022/01/10 00:05:27;;;;;;;5.93;4.28;;;0.60;99.90;;;;;;486110;242;27376;-70
2022/01/10 00:07:28;;;;;;;5.53;4.18;;;0.50;99.90;;;;;;486084;242;27577;-70
2022/01/10 00:09:29;;;;;;;4.95;4.05;;;0.50;99.90;;;;;;486101;242;27492;-70
2022/01/10 00:11:31;;;;;;;4.62;3.80;;;0.50;99.90;;;;;;486091;244;27460;-70
2022/01/10 00:13:32;;;;;;;4.25;3.62;;;0.50;99.90;;;;;;485998;242;27413;-70
2022/01/10 00:15:33;;;;;;;4.22;3.53;;;0.50;99.90;;;;;;485946;242;27377;-70
2022/01/10 00:17:37;;;;;;;7.03;4.40;;;0.40;99.90;;;;;;485831;242;27427;-70
2022/01/10 00:19:36;;;;;;;4.22;3.58;;;0.40;99.90;;;;;;485911;242;28286;-70
2022/01/10 00:21:37;;;;;;;5.40;3.75;;;0.40;99.90;;;;;;486002;242;27921;-70
2022/01/10 00:23:38;;;;;;;3.78;3.10;;;0.40;99.90;;;;;;486071;242;27966;-69
2022/01/10 00:25:39;;;;;;;3.12;2.83;;;0.40;99.90;;;;;;486114;242;27840;-70
2022/01/10 00:27:41;;;;;;;3.83;3.45;;;0.40;99.90;;;;;;486075;242;27488;-69
2022/01/10 00:29:42;;;;;;;3.95;3.55;;;0.40;99.90;;;;;;486107;242;27406;-70
2022/01/10 00:31:43;;;;;;;4.20;3.50;;;0.40;99.90;;;;;;486096;242;27369;-70
2022/01/10 00:33:44;;;;;;;5.45;3.58;;;0.40;99.90;;;;;;486111;242;27498;-70
2022/01/10 00:35:47;;;;;;;3.50;3.20;;;0.40;99.90;;;;;;486077;242;27360;-69
2022/01/10 00:37:47;;;;;;;5.80;4.15;;;0.30;99.90;;;;;;486070;242;27488;-70
2022/01/10 00:39:49;;;;;;;3.78;3.20;;;0.40;99.90;;;;;;486119;242;27523;-68
2022/01/10 00:41:49;;;;;;;3.50;3.20;;;0.40;99.90;;;;;;486111;242;27365;-68
2022/01/10 00:43:51;;;;;;;4.55;3.67;;;0.30;99.90;;;;;;486129;242;27499;-68
2022/01/10 00:45:52;;;;;;;3.97;3.47;;;0.40;99.90;;;;;;486048;242;27821;-68
2022/01/10 00:47:53;;;;;;;6.85;4.28;;;0.30;99.90;;;;;;486080;242;27907;-68
2022/01/10 00:49:54;;;;;;;4.55;3.72;;;0.30;99.90;;;;;;486103;242;27942;-67
2022/01/10 00:51:56;;;;;;;5.82;4.00;;;0.30;99.90;;;;;;486134;242;27844;-67
2022/01/10 00:53:57;;;;;;;7.20;4.20;;;0.30;99.90;;;;;;486081;242;27511;-68
2022/01/10 00:55:58;;;;;;;5.90;3.97;;;0.30;99.90;;;;;;486037;242;27518;-68
2022/01/10 00:57:59;;;;;;;5.78;4.03;;;0.30;99.90;;;;;;486078;242;27364;-67
2022/01/10 01:00:01;;;;;;;6.05;4.28;;;0.30;99.90;;;;;;486079;242;27408;-68
2022/01/10 01:02:02;;;;;;;6.00;4.25;;;0.30;99.90;;;;;;486101;242;27392;-67
2022/01/10 01:04:03;;;;;;;6.87;4.00;;;0.30;99.90;;;;;;486087;242;27543;-68
2022/01/10 01:06:04;;;;;;;8.82;4.80;;;0.30;99.90;;;;;;486051;242;27381;-69
2022/01/10 01:08:07;;;;;;;7.12;5.15;;;0.30;99.90;;;;;;486122;242;27500;-68
2022/01/10 01:12:30;;;;;;;6.47;4.65;;;0.30;99.90;;;;;;486094;242;27372;-70
2022/01/10 01:14:50;;;;;;;5.93;4.12;;;0.30;99.90;;;;;;486273;242;27436;-68
2022/01/10 01:25:01;;;;;;;6.43;4.43;;;0.30;99.90;;;;;;486082;244;27903;-69
2022/01/10 01:27:02;;;;;;;4.45;3.80;;;0.40;99.90;;;;;;486087;242;28071;-69
2022/01/10 01:29:04;;;;;;;4.55;3.75;;;0.30;99.90;;;;;;486084;242;27883;-70
2022/01/10 01:31:05;;;;;;;4.10;3.60;;;0.30;99.90;;;;;;486074;242;27368;-68
2022/01/10 01:33:06;;;;;;;4.35;3.70;;;0.30;99.90;;;;;;486102;242;27491;-68
2022/01/10 01:35:08;;;;;;;7.10;3.72;;;0.40;99.90;;;;;;486091;242;27397;-67
2022/01/10 01:37:11;;;;;;;6.05;4.00;;;0.30;99.90;;;;;;486102;242;27408;-68
2022/01/10 01:39:21;;;;;;;6.53;4.05;;;0.40;99.90;;;;;;486109;242;27507;-68
2022/01/10 01:43:21;;;;;;;5.95;4.12;;;0.40;99.90;;;;;;486138;242;27961;-70
2022/01/10 01:45:23;;;;;;;5.28;4.10;;;0.40;99.90;;;;;;486124;242;27370;-69
2022/01/10 01:47:24;;;;;;;4.03;3.60;;;0.40;99.90;;;;;;486107;242;27412;-70
2022/01/10 01:49:25;;;;;;;5.60;3.60;;;0.40;99.90;;;;;;486130;242;27360;-70
2022/01/10 01:51:26;;;;;;;5.50;4.12;;;0.40;99.90;;;;;;486135;242;27408;-70
2022/01/10 01:53:28;;;;;;;5.20;3.95;;;0.30;99.90;;;;;;486133;242;27401;-70
2022/01/10 01:55:29;;;;;;;4.07;3.35;;;0.40;99.90;;;;;;486102;242;27500;-70
2022/01/10 01:57:30;;;;;;;5.32;3.78;;;0.30;99.90;;;;;;486106;242;27416;-70
2022/01/10 01:59:31;;;;;;;4.72;3.90;;;0.30;99.90;;;;;;486064;242;27450;-69
2022/01/10 02:01:33;;;;;;;4.47;3.22;;;0.30;99.90;;;;;;486105;242;27404;-70
2022/01/10 02:03:37;;;;;;;5.65;3.95;;;0.20;99.90;;;;;;486127;242;27426;-70
2022/01/10 02:05:35;;;;;;;4.30;3.83;;;0.20;99.90;;;;;;486167;242;27444;-70
2022/01/10 02:07:36;;;;;;;5.75;4.05;;;0.20;99.90;;;;;;486089;242;27423;-69
2022/01/10 02:09:38;;;;;;;4.37;3.42;;;0.20;99.90;;;;;;486099;242;27448;-69
2022/01/10 02:11:39;;;;;;;3.25;2.97;;;0.10;99.90;;;;;;486064;242;27413;-70
2022/01/10 02:13:40;;;;;;;3.85;3.22;;;0.10;99.90;;;;;;486120;242;27488;-70
2022/01/10 02:15:51;;;;;;;3.30;2.95;;;0.20;99.90;;;;;;486102;242;27388;-70
2022/01/10 02:17:54;;;;;;;6.30;3.87;;;0.20;99.90;;;;;;486192;242;27410;-69
2022/01/10 02:19:50;;;;;;;4.43;3.33;;;0.20;99.90;;;;;;486169;242;27963;-70
2022/01/10 02:21:51;;;;;;;3.95;3.25;;;0.20;99.90;;;;;;486120;242;27979;-70
2022/01/10 02:23:53;;;;;;;3.85;3.17;;;0.20;99.90;;;;;;486138;242;29001;-70
2022/01/10 02:25:53;;;;;;;3.78;3.17;;;0.30;99.90;;;;;;486136;242;27913;-70
2022/01/10 02:27:55;;;;;;;4.93;3.50;;;0.30;99.90;;;;;;486118;242;27447;-70
2022/01/10 02:29:56;;;;;;;4.12;3.42;;;0.30;99.90;;;;;;486111;242;27373;-70
2022/01/10 02:31:57;;;;;;;4.35;3.50;;;0.30;99.90;;;;;;486095;242;27416;-70
2022/01/10 02:33:58;;;;;;;3.55;3.20;;;0.30;99.90;;;;;;486099;242;27417;-70
2022/01/10 02:38:10;;;;;;;4.22;3.50;;;0.30;99.90;;;;;;486111;242;28934;-69
2022/01/10 02:40:14;;;;;;;4.43;3.30;;;0.30;99.90;;;;;;486124;242;27459;-70
2022/01/10 02:42:12;;;;;;;4.25;3.55;;;0.30;99.90;;;;;;486125;242;27424;-70
2022/01/10 02:44:13;;;;;;;6.25;3.70;;;0.30;99.90;;;;;;486072;242;27484;-70
2022/01/10 02:46:15;;;;;;;5.22;3.90;;;0.30;99.90;;;;;;486116;242;27369;-70
2022/01/10 02:48:16;;;;;;;4.20;3.20;;;0.40;99.90;;;;;;486118;242;27456;-70
2022/01/10 02:50:17;;;;;;;4.75;3.35;;;0.40;99.90;;;;;;486125;242;27437;-70
2022/01/10 02:52:18;;;;;;;3.78;2.90;;;0.40;99.90;;;;;;486127;242;27408;-70
2022/01/10 02:54:20;;;;;;;3.10;2.90;;;0.40;99.90;;;;;;486105;242;27504;-70
2022/01/10 02:56:21;;;;;;;4.68;3.28;;;0.40;99.90;;;;;;486072;242;27482;-70
2022/01/10 02:58:22;;;;;;;4.22;3.28;;;0.40;99.90;;;;;;486067;242;27453;-70
2022/01/10 03:00:23;;;;;;;3.58;3.12;;;0.40;99.90;;;;;;486105;242;27944;-69
2022/01/10 03:02:29;;;;;;;3.50;3.20;;;0.30;99.90;;;;;;486112;242;27829;-70
2022/01/10 03:04:26;;;;;;;4.15;3.53;;;0.40;99.90;;;;;;486117;242;27867;-69
2022/01/10 03:06:27;;;;;;;3.25;2.95;;;0.40;99.90;;;;;;486114;242;27458;-70
2022/01/10 03:08:29;;;;;;;3.70;3.30;;;0.40;99.90;;;;;;486097;242;27491;-70
2022/01/10 03:10:30;;;;;;;3.75;3.17;;;0.40;99.90;;;;;;486126;242;27412;-71
2022/01/10 03:12:31;;;;;;;3.92;3.53;;;0.40;99.90;;;;;;486130;242;27364;-69
2022/01/10 03:14:32;;;;;;;3.62;3.33;;;0.40;99.90;;;;;;486116;242;27395;-70
2022/01/10 03:16:33;;;;;;;4.32;3.17;;;0.40;99.90;;;;;;486104;242;27475;-70
2022/01/10 03:18:35;;;;;;;4.10;3.33;;;0.30;99.90;;;;;;486119;242;27491;-70
2022/01/10 03:20:36;;;;;;;3.55;3.25;;;0.30;99.90;;;;;;486130;242;27492;-70
2022/01/10 03:22:37;;;;;;;4.37;3.97;;;0.30;99.90;;;;;;486130;242;27381;-70
2022/01/10 03:24:38;;;;;;;3.83;3.50;;;0.30;99.90;;;;;;486099;242;27532;-70
2022/01/10 03:26:40;;;;;;;3.20;2.90;;;0.40;99.90;;;;;;486090;242;27364;-70
2022/01/10 03:28:41;;;;;;;3.65;3.35;;;0.40;99.90;;;;;;486086;242;27936;-70
2022/01/10 03:30:42;;;;;;;3.00;2.70;;;0.30;99.90;;;;;;486124;242;27882;-69
2022/01/10 03:32:45;;;;;;;5.68;2.97;;;0.40;99.90;;;;;;486142;242;27939;-70
2022/01/10 03:34:45;;;;;;;2.92;2.72;;;0.40;99.90;;;;;;486119;242;27851;-69
2022/01/10 03:36:46;;;;;;;5.55;3.20;;;0.30;99.90;;;;;;486099;242;27461;-70
2022/01/10 03:38:47;;;;;;;3.47;3.12;;;0.30;99.90;;;;;;486127;242;27375;-70
2022/01/10 03:40:48;;;;;;;3.72;3.42;;;0.20;99.90;;;;;;486129;242;27480;-70
2022/01/10 03:42:50;;;;;;;3.40;3.10;;;0.10;99.90;;;;;;486077;242;27369;-70
2022/01/10 03:44:51;;;;;;;3.62;3.25;;;0.10;99.90;;;;;;486063;242;27463;-70
2022/01/10 03:46:53;;;;;;;3.45;3.15;;;0.10;99.90;;;;;;486108;242;27392;-70
2022/01/10 03:48:53;;;;;;;5.93;3.65;;;0.00;99.90;;;;;;486106;244;27463;-69
2022/01/10 03:50:56;;;;;;;4.60;3.80;;;0.00;99.90;;;;;;486125;242;27435;-69
2022/01/10 03:52:56;;;;;;;4.18;3.22;;;0.00;99.90;;;;;;486122;242;27366;-70
2022/01/10 03:54:57;;;;;;;3.95;3.45;;;-0.10;99.90;;;;;;486107;242;27492;-70
2022/01/10 03:56:59;;;;;;;4.03;3.22;;;-0.10;99.90;;;;;;486116;242;28718;-70
2022/01/10 03:59:00;;;;;;;4.65;3.90;;;0.00;99.90;;;;;;486112;242;27828;-70
2022/01/10 04:01:02;;;;;;;4.25;3.53;;;0.00;99.90;;;;;;486122;242;28030;-70
2022/01/10 04:03:06;;;;;;;3.67;3.25;;;0.00;99.90;;;;;;486084;242;27468;-69
2022/01/10 04:05:04;;;;;;;3.55;3.25;;;0.00;99.90;;;;;;486093;242;27412;-70
2022/01/10 04:07:05;;;;;;;6.30;3.95;;;0.00;99.90;;;;;;486114;242;27499;-70
2022/01/10 04:09:06;;;;;;;3.08;2.80;;;0.00;99.90;;;;;;486104;242;27455;-70
2022/01/10 04:11:07;;;;;;;3.42;3.12;;;0.00;99.90;;;;;;486102;242;27488;-70
2022/01/10 04:13:09;;;;;;;3.55;2.83;;;0.00;99.90;;;;;;486087;242;27491;-70
2022/01/10 04:15:10;;;;;;;4.85;2.97;;;0.00;99.90;;;;;;486100;242;27500;-70
2022/01/10 04:17:11;;;;;;;3.28;3.00;;;0.00;99.90;;;;;;486088;242;27851;-70
2022/01/10 04:19:12;;;;;;;3.28;2.97;;;0.00;99.90;;;;;;486136;242;27392;-70
2022/01/10 04:21:14;;;;;;;3.75;3.25;;;0.00;99.90;;;;;;486097;242;27535;-70
2022/01/10 04:23:15;;;;;;;4.75;3.42;;;-0.10;99.90;;;;;;486119;242;27848;-69
2022/01/10 04:25:16;;;;;;;5.00;3.40;;;-0.10;99.90;;;;;;486062;242;27885;-69
2022/01/10 04:27:17;;;;;;;3.90;3.25;;;-0.10;99.90;;;;;;486063;242;27822;-69
2022/01/10 04:29:19;;;;;;;3.15;2.75;;;-0.10;99.90;;;;;;486099;242;27499;-67
2022/01/10 04:31:20;;;;;;;4.20;3.08;;;-0.20;99.90;;;;;;486115;242;27499;-68
2022/01/10 04:33:27;;;;;;;5.82;3.53;;;-0.20;99.90;;;;;;486120;242;27374;-67
2022/01/10 04:35:22;;;;;;;4.80;3.37;;;-0.10;99.90;;;;;;486095;242;27428;-68
2022/01/10 04:37:24;;;;;;;5.43;3.85;;;-0.10;99.90;;;;;;486105;242;27524;-67
2022/01/10 04:39:25;;;;;;;4.15;3.30;;;-0.10;99.90;;;;;;486101;242;27397;-67
2022/01/10 04:41:26;;;;;;;4.57;3.25;;;-0.10;99.90;;;;;;486075;242;27495;-67
2022/01/10 04:43:27;;;;;;;4.47;3.50;;;-0.10;99.90;;;;;;486060;242;27925;-67
2022/01/10 04:45:29;;;;;;;4.28;3.40;;;-0.10;99.90;;;;;;486091;242;27901;-67
2022/01/10 04:47:30;;;;;;;3.90;3.28;;;-0.10;99.90;;;;;;486091;242;27428;-68
2022/01/10 04:49:43;;;;;;;3.95;3.65;;;-0.10;99.90;;;;;;486102;242;27444;-67
2022/01/10 04:51:32;;;;;;;4.28;3.95;;;-0.10;99.90;;;;;;486190;242;27409;-68
2022/01/10 04:53:34;;;;;;;3.62;3.15;;;-0.10;99.90;;;;;;486124;242;27404;-68
2022/01/10 04:55:35;;;;;;;3.37;2.90;;;-0.10;99.90;;;;;;486076;242;27413;-68
2022/01/10 04:57:36;;;;;;;4.00;3.60;;;-0.10;99.90;;;;;;486072;242;27492;-68
2022/01/10 04:59:37;;;;;;;3.40;3.10;;;0.00;99.90;;;;;;486119;242;27476;-68
2022/01/10 05:01:39;;;;;;;4.37;3.87;;;-0.10;99.90;;;;;;486098;242;27428;-68
2022/01/10 05:03:40;;;;;;;4.37;3.90;;;0.00;99.90;;;;;;486092;242;27828;-68
2022/01/10 05:05:41;;;;;;;3.80;3.15;;;0.00;99.90;;;;;;486100;242;27980;-68
2022/01/10 05:07:42;;;;;;;4.68;3.05;;;0.00;99.90;;;;;;486107;242;27981;-68
2022/01/10 05:09:44;;;;;;;3.47;3.17;;;0.00;99.90;;;;;;486118;242;27479;-67
2022/01/10 05:11:45;;;;;;;4.72;3.05;;;0.00;99.90;;;;;;486106;242;27487;-68
2022/01/10 05:13:46;;;;;;;4.85;3.42;;;0.00;99.90;;;;;;486139;242;27401;-68
2022/01/10 05:15:49;;;;;;;5.90;3.40;;;0.00;99.90;;;;;;486111;242;27404;-67
2022/01/10 05:17:49;;;;;;;3.12;2.83;;;-0.10;99.90;;;;;;486143;242;27409;-69
2022/01/10 05:19:50;;;;;;;4.00;3.62;;;-0.10;99.90;;;;;;486161;242;27455;-68
2022/01/10 05:21:51;;;;;;;3.40;3.10;;;-0.10;99.90;;;;;;486121;242;27423;-68
2022/01/10 05:23:52;;;;;;;4.93;3.30;;;-0.10;99.90;;;;;;486105;242;27479;-68
2022/01/10 05:25:54;;;;;;;3.47;2.92;;;-0.10;99.90;;;;;;486071;242;27445;-67
2022/01/10 05:27:55;;;;;;;4.75;3.35;;;-0.10;99.90;;;;;;486162;242;27884;-70
2022/01/10 05:29:56;;;;;;;5.70;3.28;;;-0.10;99.90;;;;;;486121;242;27815;-70
2022/01/10 05:31:57;;;;;;;5.30;3.37;;;-0.10;99.90;;;;;;486116;242;27504;-70
2022/01/10 05:33:59;;;;;;;4.60;3.72;;;-0.10;99.90;;;;;;486148;242;27394;-70
2022/01/10 05:36:00;;;;;;;5.28;3.65;;;-0.10;99.90;;;;;;486120;242;27409;-70
2022/01/10 05:38:01;;;;;;;5.37;3.60;;;-0.10;99.90;;;;;;486134;242;27413;-70
2022/01/10 05:40:02;;;;;;;4.87;4.40;;;-0.20;99.90;;;;;;486130;242;27444;-70
2022/01/10 05:42:04;;;;;;;4.30;3.33;;;-0.20;99.90;;;;;;486114;242;27417;-69
2022/01/10 05:44:05;;;;;;;7.03;3.50;;;-0.20;99.90;;;;;;486079;242;27385;-70
2022/01/10 05:46:12;;;;;;;4.62;3.12;;;-0.20;99.90;;;;;;486084;242;27479;-69
2022/01/10 05:48:11;;;;;;;3.58;3.28;;;-0.20;99.90;;;;;;486207;240;27963;-70
2022/01/10 05:50:09;;;;;;;4.82;3.62;;;-0.10;99.90;;;;;;486128;242;27922;-70
2022/01/10 05:54:37;;;;;;;4.50;3.72;;;-0.10;99.90;;;;;;480566;244;27503;-69
2022/01/10 05:56:38;;;;;;;5.40;3.62;;;-0.10;99.90;;;;;;476995;248;27966;-70
2022/01/10 05:58:39;;;;;;;3.80;3.50;;;-0.10;99.90;;;;;;489475;242;27857;-70
2022/01/10 06:00:40;;;;;;;4.00;3.60;;;-0.10;99.90;;;;;;489512;243;27891;-70
2022/01/10 06:02:42;;;;;;;4.07;3.67;;;-0.10;99.90;;;;;;489499;243;27477;-70
2022/01/10 06:04:43;;;;;;;3.55;3.20;;;-0.10;99.90;;;;;;489524;243;27423;-69
2022/01/10 06:06:44;;;;;;;3.87;3.40;;;-0.10;99.90;;;;;;489501;243;27370;-69
2022/01/10 06:08:45;;;;;;;5.78;3.58;;;0.00;99.90;;;;;;489500;243;27423;-69
2022/01/10 06:10:47;;;;;;;5.53;3.62;;;0.00;99.90;;;;;;489506;243;27395;-69
2022/01/10 06:12:48;;;;;;;6.70;4.10;;;0.00;99.90;;;;;;489506;243;27410;-69
2022/01/10 06:14:49;;;;;;;6.05;3.60;;;0.00;99.90;;;;;;489524;243;27762;-70
2022/01/10 06:16:50;;;;;;;5.28;3.78;;;0.00;99.90;;;;;;489531;243;27430;-70
2022/01/10 06:18:52;;;;;;;7.22;4.00;;;0.10;99.90;;;;;;489524;243;27862;-70
2022/01/10 06:20:54;;;;;;;3.92;3.37;;;0.00;99.90;;;;;;489502;243;27807;-69
2022/01/10 06:22:54;;;;;;;5.82;3.70;;;0.00;99.90;;;;;;489458;243;27877;-69
2022/01/10 06:24:55;;;;;;;4.32;3.25;;;0.00;99.90;;;;;;489565;243;27960;-70
2022/01/10 06:26:57;;;;;;;3.45;2.53;;;0.00;99.90;;;;;;489515;243;27443;-70
2022/01/10 06:28:58;;;;;;;5.05;3.40;;;0.00;99.90;;;;;;489514;243;27399;-69
2022/01/10 06:30:59;;;;;;;5.40;3.25;;;-0.10;99.90;;;;;;489498;243;27457;-70
2022/01/10 06:33:00;;;;;;;3.95;3.20;;;-0.10;99.90;;;;;;489468;243;27419;-70
2022/01/10 06:35:02;;;;;;;4.53;3.28;;;-0.20;99.90;;;;;;489536;243;27441;-70
2022/01/10 06:37:03;;;;;;;3.40;2.90;;;-0.20;99.90;;;;;;489506;243;27390;-70
2022/01/10 06:39:04;;;;;;;3.50;2.97;;;-0.20;99.90;;;;;;489494;243;27442;-70
2022/01/10 06:41:05;;;;;;;5.50;3.17;;;-0.20;99.90;;;;;;489465;243;27475;-70
2022/01/10 06:43:07;;;;;;;3.37;3.05;;;-0.20;99.90;;;;;;489487;243;27842;-70
2022/01/10 06:45:08;;;;;;;3.83;3.22;;;-0.20;99.90;;;;;;489528;243;29050;-69
2022/01/10 06:47:09;;;;;;;4.93;3.37;;;-0.30;99.90;;;;;;489527;243;27529;-68
2022/01/10 06:49:10;;;;;;;3.20;2.90;;;-0.30;99.90;;;;;;489489;243;27406;-68
2022/01/10 06:51:12;;;;;;;7.43;2.62;;;-0.40;99.90;;;;;;489500;243;27482;-68
2022/01/10 06:53:13;;;;;;;4.03;3.42;;;-0.40;99.90;;;;;;489516;243;27359;-67
2022/01/10 06:55:14;;;;;;;2.72;2.53;;;-0.40;99.90;;;;;;489505;243;27493;-68
2022/01/10 06:57:15;;;;;;;3.25;3.00;;;-0.30;99.90;;;;;;489528;243;27380;-68
2022/01/10 06:59:17;;;;;;;4.07;3.00;;;-0.30;99.90;;;;;;489499;243;27477;-68
2022/01/10 07:01:19;;;;;;;3.97;3.30;;;-0.30;99.90;;;;;;489522;243;27789;-68
2022/01/10 07:03:19;;;;;;;4.70;3.53;;;-0.40;99.90;;;;;;489533;243;27843;-68
2022/01/10 07:05:20;;;;;;;3.45;3.15;;;-0.40;99.90;;;;;;489532;243;27896;-68
2022/01/10 07:07:22;;;;;;;3.67;3.37;;;-0.50;99.90;;;;;;489530;243;27372;-68
2022/01/10 07:09:23;;;;;;;3.65;3.35;;;-0.50;99.90;;;;;;489500;243;27410;-68
2022/01/10 07:11:24;;;;;;;5.22;3.28;;;-0.60;99.90;;;;;;489517;243;27406;-68
2022/01/10 07:13:25;;;;;;;6.00;3.37;;;-0.60;99.90;;;;;;489520;243;27390;-68
2022/01/10 07:15:27;;;;;;;3.70;3.22;;;-0.70;99.90;;;;;;489521;243;27393;-68
2022/01/10 07:17:29;;;;;;;3.50;3.20;;;-0.70;99.90;;;;;;489529;243;27363;-68
2022/01/10 07:19:29;;;;;;;4.00;3.10;;;-0.70;99.90;;;;;;489506;242;27403;-67
2022/01/10 07:21:30;;;;;;;3.75;3.30;;;-0.70;99.90;;;;;;489550;243;27949;-67
2022/01/10 07:23:32;;;;;;;3.70;3.25;;;-0.70;99.90;;;;;;489553;243;27846;-68
2022/01/10 07:25:35;;;;;;;3.45;3.15;;;-0.80;99.90;;;;;;489533;243;27909;-67
2022/01/10 07:27:34;;;;;;;4.35;3.00;;;-0.70;99.90;;;;;;489486;242;27457;-68
2022/01/10 07:29:35;;;;;;;3.25;2.95;;;-0.60;99.90;;;;;;489495;243;27398;-68
2022/01/10 07:31:37;;;;;;;3.65;3.12;;;-0.60;99.90;;;;;;489516;243;27401;-67
2022/01/10 07:33:38;;;;;;;3.60;3.30;;;-0.60;99.90;;;;;;489514;243;27363;-68
2022/01/10 07:35:39;;;;;;;5.00;3.30;;;-0.50;99.90;;;;;;489476;243;27517;-68
2022/01/10 07:37:41;;;;;;;3.75;2.90;;;-0.50;99.90;;;;;;489495;243;27509;-68
2022/01/10 07:39:42;;;;;;;4.07;3.15;;;-0.50;99.90;;;;;;489494;243;27469;-67
2022/01/10 07:41:43;;;;;;;3.10;2.90;;;-0.50;99.90;;;;;;489520;243;27882;-67
2022/01/10 07:43:44;;;;;;;5.07;3.22;;;-0.50;99.90;;;;;;489503;243;27827;-68
2022/01/10 07:45:46;;;;;;;3.35;3.05;;;-0.50;99.90;;;;;;489514;243;28979;-68
2022/01/10 07:47:47;;;;;;;3.62;3.30;;;-0.50;99.90;;;;;;489514;243;27390;-68
2022/01/10 07:49:48;;;;;;;4.50;3.65;;;-0.50;99.90;;;;;;489503;243;27371;-68
2022/01/10 07:51:49;;;;;;;2.85;2.65;;;-0.40;99.90;;;;;;489505;243;27403;-68
2022/01/10 07:53:51;;;;;;;3.80;2.90;;;-0.40;99.90;;;;;;489493;243;27416;-67
2022/01/10 07:55:52;;;;;;;5.90;3.55;;;-0.30;99.90;;;;;;489490;243;27410;-68
2022/01/10 07:57:53;;;;;;;3.33;3.03;;;-0.30;99.90;;;;;;489527;243;27854;-67
2022/01/10 07:59:54;;;;;;;3.78;3.00;;;-0.20;99.90;;;;;;489525;243;27386;-68
2022/01/10 08:01:56;;;;;;;3.03;2.70;;;-0.20;99.90;;;;;;489521;243;27862;-68
2022/01/10 08:03:57;;;;;;;3.95;3.55;;;-0.10;99.90;;;;;;489504;243;27839;-68
2022/01/10 08:05:58;;;;;;;4.15;3.42;;;0.00;99.90;;;;;;489488;243;28016;-67
2022/01/10 08:07:59;;;;;;;4.68;3.28;;;0.00;99.90;;;;;;489532;243;27487;-67
2022/01/10 08:10:01;;;;;;;5.50;3.72;;;0.10;99.90;;;;;;489522;243;27501;-68
2022/01/10 08:12:02;;;;;;;5.47;3.55;;;0.10;99.90;;;;;;489491;243;27414;-68
2022/01/10 08:14:05;;;;;;;3.85;3.50;;;0.10;99.90;;;;;;489499;243;27385;-68
2022/01/10 08:16:05;;;;;;;5.55;3.80;;;0.20;99.90;;;;;;489493;242;27395;-68
2022/01/10 08:18:06;;;;;;;4.25;3.75;;;0.20;99.90;;;;;;489491;243;27407;-68
2022/01/10 08:20:08;;;;;;;4.53;3.40;;;0.30;99.90;;;;;;489497;243;27414;-69
2022/01/10 08:22:09;;;;;;;3.95;3.50;;;0.30;99.90;;;;;;489505;243;27392;-70
2022/01/10 08:24:10;;;;;;;4.05;3.70;;;0.30;99.90;;;;;;489481;243;27864;-70
2022/01/10 08:26:11;;;;;;;3.78;3.37;;;0.30;99.90;;;;;;489481;243;28044;-70
2022/01/10 08:28:13;;;;;;;6.22;3.85;;;0.30;99.90;;;;;;489469;243;29037;-70
2022/01/10 08:30:14;;;;;;;4.53;3.35;;;0.30;99.90;;;;;;489504;243;27961;-70
2022/01/10 08:32:15;;;;;;;4.55;3.22;;;0.30;99.90;;;;;;489496;243;27403;-69
2022/01/10 08:34:16;;;;;;;3.70;3.30;;;0.30;99.90;;;;;;489487;243;27481;-70
2022/01/10 08:36:18;;;;;;;3.40;3.10;;;0.30;99.90;;;;;;489450;243;27366;-70
2022/01/10 08:38:19;;;;;;;4.20;3.80;;;0.30;99.90;;;;;;489468;243;27398;-70
2022/01/10 08:40:20;;;;;;;6.28;4.85;;;0.50;99.90;;;;;;489476;243;27395;-70
2022/01/10 08:42:21;;;;;;;3.95;3.65;;;0.50;99.90;;;;;;489443;243;27413;-70
2022/01/10 08:44:23;;;;;;;4.47;4.07;;;0.50;99.90;;;;;;489506;243;27398;-69
2022/01/10 08:46:24;;;;;;;6.78;3.80;;;0.50;99.90;;;;;;489474;243;27370;-70
2022/01/10 08:48:25;;;;;;;4.00;3.60;;;0.50;99.90;;;;;;489501;243;27371;-70
2022/01/10 08:50:27;;;;;;;5.40;4.00;;;0.50;99.90;;;;;;489484;243;27403;-70
2022/01/10 08:52:28;;;;;;;3.87;3.45;;;0.50;99.90;;;;;;489458;243;27830;-67
2022/01/10 08:54:29;;;;;;;3.97;3.58;;;0.50;99.90;;;;;;489515;243;28020;-67
2022/01/10 08:58:32;;;;;;;3.90;3.42;;;0.50;99.90;;;;;;502051;233;38690;-69
2022/01/10 09:00:28;;;;;;;7.57;3.60;;;0.60;99.90;;;;;;493738;240;27530;-69
2022/01/10 09:02:30;;;;;;;4.43;3.78;;;0.50;99.90;;;;;;494122;240;27574;-70
2022/01/10 09:04:31;;;;;;;5.60;4.28;;;0.60;99.90;;;;;;494098;240;27485;-69
2022/01/10 09:06:32;;;;;;;7.00;3.65;;;0.60;99.90;;;;;;494110;240;27439;-69
2022/01/10 09:08:33;;;;;;;4.75;3.90;;;0.70;99.90;;;;;;494107;240;27489;-69
2022/01/10 09:10:35;;;;;;;5.37;3.90;;;0.70;99.90;;;;;;494125;240;27533;-69
2022/01/10 09:12:38;;;;;;;5.18;3.95;;;0.70;99.90;;;;;;494124;240;27560;-69
2022/01/10 09:14:37;;;;;;;4.28;3.87;;;0.80;99.90;;;;;;493988;240;27595;-69
2022/01/10 09:16:38;;;;;;;5.45;4.25;;;0.90;99.90;;;;;;494099;240;27450;-69
2022/01/10 09:18:40;;;;;;;4.18;3.72;;;0.90;99.90;;;;;;494130;240;27524;-69
2022/01/10 09:20:41;;;;;;;3.85;3.45;;;0.90;99.90;;;;;;494150;240;27960;-69
2022/01/10 09:22:42;;;;;;;4.87;4.18;;;0.90;99.90;;;;;;494101;240;28231;-70
2022/01/10 09:24:46;;;;;;;4.97;4.00;;;0.90;99.90;;;;;;494138;240;27956;-69
2022/01/10 09:26:45;;;;;;;6.00;4.47;;;0.90;99.90;;;;;;493926;240;28416;-69
2022/01/10 09:28:46;;;;;;;6.53;4.40;;;0.90;99.90;;;;;;494126;240;27480;-69
2022/01/10 09:30:47;;;;;;;6.82;4.55;;;1.00;99.90;;;;;;494113;240;27603;-69
2022/01/10 09:32:48;;;;;;;5.30;4.55;;;1.00;99.90;;;;;;494099;240;27489;-69
2022/01/10 09:34:50;;;;;;;4.97;4.32;;;1.00;99.90;;;;;;494095;240;27477;-69
2022/01/10 09:36:51;;;;;;;4.85;4.10;;;1.00;99.90;;;;;;494103;240;27492;-69
2022/01/10 09:38:52;;;;;;;6.05;4.40;;;1.00;99.90;;;;;;494112;240;27570;-69
2022/01/10 09:40:53;;;;;;;7.22;5.15;;;1.00;99.90;;;;;;494131;240;27588;-69
2022/01/10 09:42:55;;;;;;;9.93;5.53;;;1.00;99.90;;;;;;494100;240;27932;-70
2022/01/10 09:44:56;;;;;;;6.10;4.82;;;1.00;99.90;;;;;;494063;240;27576;-69
2022/01/10 09:46:57;;;;;;;7.70;4.93;;;1.00;99.90;;;;;;494133;240;27593;-69
2022/01/10 09:49:00;;;;;;;6.82;5.05;;;1.00;99.90;;;;;;494141;240;27909;-69
2022/01/10 09:51:00;;;;;;;6.32;4.97;;;1.00;99.90;;;;;;494026;240;28036;-70
2022/01/10 09:53:01;;;;;;;9.52;4.90;;;1.00;99.90;;;;;;494081;240;27952;-70
2022/01/10 09:55:02;;;;;;;5.55;4.60;;;1.00;99.90;;;;;;494090;240;27949;-70
2022/01/10 09:57:03;;;;;;;6.70;4.90;;;1.00;99.90;;;;;;494131;240;27566;-69
2022/01/10 09:59:05;;;;;;;9.93;5.70;;;1.00;99.90;;;;;;494110;240;27499;-69
2022/01/10 10:01:06;;;;;;;9.85;6.32;;;0.90;99.90;;;;;;494076;240;27515;-69
2022/01/10 10:03:07;;;;;;;6.15;4.82;;;0.90;99.90;;;;;;494089;240;27441;-69
2022/01/10 10:05:08;;;;;;;7.12;4.90;;;0.80;99.90;;;;;;494107;240;27486;-69
2022/01/10 10:07:10;;;;;;;7.03;5.55;;;0.80;99.90;;;;;;494120;240;27588;-69
2022/01/10 10:09:11;;;;;;;7.15;5.65;;;0.80;99.90;;;;;;494018;240;27462;-69
2022/01/10 10:11:12;;;;;;;6.78;5.57;;;0.80;99.90;;;;;;493995;241;27500;-69
2022/01/10 10:13:13;;;;;;;8.32;5.68;;;0.80;99.90;;;;;;494003;241;27521;-69
2022/01/10 10:15:16;;;;;;;8.07;5.62;;;0.80;99.90;;;;;;493992;241;27489;-69
2022/01/10 10:17:18;;;;;;;6.97;5.35;;;0.80;99.90;;;;;;493906;241;27952;-69
2022/01/10 10:19:17;;;;;;;8.60;5.45;;;0.80;99.90;;;;;;493877;241;28064;-70
2022/01/10 10:21:18;;;;;;;10.65;5.50;;;0.90;99.90;;;;;;494012;241;27976;-70
2022/01/10 10:23:21;;;;;;;6.62;5.25;;;0.90;99.90;;;;;;493998;241;27437;-69
2022/01/10 10:25:21;;;;;;;6.97;5.45;;;0.90;99.90;;;;;;493960;241;27462;-69
2022/01/10 10:27:22;;;;;;;6.62;5.03;;;1.00;99.90;;;;;;493896;237;27584;-69
2022/01/10 10:29:23;;;;;;;7.45;5.43;;;1.00;99.90;;;;;;493821;241;27945;-69
2022/01/10 10:31:25;;;;;;;11.38;5.62;;;1.10;99.90;;;;;;493755;241;28325;-69
2022/01/10 10:33:26;;;;;;;5.87;5.18;;;1.10;99.90;;;;;;493827;241;28143;-69
2022/01/10 10:35:27;;;;;;;6.70;5.32;;;1.10;99.90;;;;;;493910;241;27546;-69
2022/01/10 10:37:29;;;;;;;6.95;5.47;;;1.30;99.90;;;;;;493992;237;27505;-69
2022/01/10 10:39:30;;;;;;;7.25;5.30;;;1.30;99.90;;;;;;493976;237;27453;-70
2022/01/10 10:41:31;;;;;;;7.75;5.62;;;1.40;99.90;;;;;;494024;241;27459;-69
2022/01/10 10:43:32;;;;;;;7.75;5.35;;;1.50;99.90;;;;;;494011;241;27946;-69
2022/01/10 10:45:33;;;;;;;7.68;5.60;;;1.50;99.90;;;;;;494018;241;27992;-69
2022/01/10 10:47:35;;;;;;;5.45;4.65;;;1.60;99.90;;;;;;494001;241;28494;-69
2022/01/10 10:49:39;;;;;;;8.77;5.87;;;1.60;99.90;;;;;;494004;241;28659;-69
2022/01/10 10:51:37;;;;;;;7.57;6.20;;;1.60;99.90;;;;;;493754;241;27516;-69
2022/01/10 10:53:39;;;;;;;6.10;5.03;;;1.70;99.90;;;;;;494009;241;27572;-69
2022/01/10 10:55:40;;;;;;;6.60;5.37;;;1.70;99.90;;;;;;494002;241;27457;-70